Time;durP1;ratioP1;P1;durP2;ratioP2;P2;SDS_P1;SDS_P2;PMS_P1;PMS_P2;Temp;Humidity;BMP_temperature;BMP_pressure;BME280_temperature;BME280_humidity;BME280_pressure;Samples;Min_cycle;Max_cycle;Signal;HPM_P1;HPM_P2
2021/12/13 00:02:08;;;;;;;7.60;4.07;;;10.50;99.90;;;;;;5052486;28;20401;-75
2021/12/13 00:04:49;;;;;;;2.05;1.35;;;10.40;99.90;;;;;;5025010;28;20655;-75
2021/12/13 00:07:20;;;;;;;6.15;3.55;;;10.40;99.90;;;;;;5041574;28;20036;-75
2021/12/13 00:09:51;;;;;;;2.53;2.33;;;10.40;99.90;;;;;;5032024;28;20481;-75
2021/12/13 00:12:33;;;;;;;4.35;3.05;;;10.40;99.90;;;;;;5025167;28;20071;-75
2021/12/13 00:15:00;;;;;;;1.00;0.80;;;10.40;99.90;;;;;;5068992;28;20875;-75
2021/12/13 00:17:43;;;;;;;1.38;1.30;;;10.40;99.90;;;;;;5041866;28;20076;-75
2021/12/13 00:20:27;;;;;;;1.17;1.08;;;10.40;99.90;;;;;;5042229;28;20156;-76
2021/12/13 00:22:55;;;;;;;0.22;0.22;;;10.40;99.90;;;;;;5071333;28;20039;-75
2021/12/13 00:25:24;;;;;;;11.82;4.78;;;10.50;99.90;;;;;;5035140;28;20439;-75
2021/12/13 00:27:56;;;;;;;2.85;1.30;;;10.40;99.90;;;;;;5020258;28;20060;-75
2021/12/13 00:30:25;;;;;;;0.45;0.45;;;10.40;99.90;;;;;;5039600;28;20143;-75
2021/12/13 00:33:12;;;;;;;0.63;0.63;;;10.40;99.90;;;;;;5039950;28;20165;-75
2021/12/13 00:35:54;;;;;;;3.83;1.98;;;10.40;99.90;;;;;;5021337;28;20052;-75
2021/12/13 00:38:23;;;;;;;1.45;0.90;;;10.40;99.90;;;;;;5030514;28;20051;-75
2021/12/13 00:41:05;;;;;;;3.10;2.28;;;10.40;99.90;;;;;;5036240;28;20094;-75
2021/12/13 00:43:38;;;;;;;1.17;1.10;;;10.40;99.90;;;;;;5036252;28;20119;-75
2021/12/13 00:46:16;;;;;;;9.23;4.22;;;10.40;99.90;;;;;;5042524;28;20085;-75
2021/12/13 00:48:46;;;;;;;7.13;3.22;;;10.40;99.90;;;;;;5040714;28;20037;-75
2021/12/13 00:51:29;;;;;;;4.57;2.88;;;10.40;99.90;;;;;;5055493;28;20213;-75
2021/12/13 00:54:01;;;;;;;14.00;6.13;;;10.40;99.90;;;;;;5038483;28;20119;-75
2021/12/13 00:56:57;;;;;;;5.40;3.10;;;10.50;99.90;;;;;;5025679;28;20045;-75
2021/12/13 00:59:26;;;;;;;0.30;0.30;;;10.40;99.90;;;;;;5041355;28;20055;-75
2021/12/13 01:02:02;;;;;;;13.75;5.75;;;10.40;99.90;;;;;;5041631;28;20124;-75
2021/12/13 01:05:00;;;;;;;10.45;4.80;;;10.40;99.90;;;;;;5038007;28;20045;-75
2021/12/13 01:08:03;;;;;;;4.90;2.83;;;10.40;99.90;;;;;;5035670;28;20040;-75
2021/12/13 01:10:39;;;;;;;2.03;1.58;;;10.40;99.90;;;;;;5039732;28;20044;-75
2021/12/13 01:13:17;;;;;;;2.28;2.03;;;10.40;99.90;;;;;;5023834;28;20045;-75
2021/12/13 01:16:33;;;;;;;2.25;0.93;;;10.40;99.90;;;;;;5066652;28;20041;-75
2021/12/13 01:19:27;;;;;;;16.48;5.72;;;10.40;99.90;;;;;;5035370;28;20448;-75
2021/12/13 01:22:37;;;;;;;24.80;7.75;;;10.40;99.90;;;;;;5035580;28;20103;-75
2021/12/13 01:27:50;;;;;;;3.78;2.67;;;10.50;99.90;;;;;;5041964;28;20033;-75
2021/12/13 01:30:21;;;;;;;2.70;1.27;;;10.50;99.90;;;;;;5034436;28;20033;-75
2021/12/13 01:32:51;;;;;;;13.02;5.20;;;10.40;99.90;;;;;;5059503;28;20444;-75
2021/12/13 01:35:24;;;;;;;6.35;2.90;;;10.40;99.90;;;;;;5037546;28;20037;-75
2021/12/13 01:37:52;;;;;;;0.98;0.93;;;10.40;99.90;;;;;;5033061;28;20122;-75
2021/12/13 01:40:24;;;;;;;9.55;2.15;;;10.40;99.90;;;;;;5024419;28;20123;-75
2021/12/13 01:43:01;;;;;;;0.28;0.28;;;10.50;99.90;;;;;;5025315;28;20394;-75
2021/12/13 01:45:31;;;;;;;3.28;2.22;;;10.40;99.90;;;;;;5069567;28;20528;-75
2021/12/13 01:47:59;;;;;;;22.85;8.85;;;10.50;99.90;;;;;;5040267;28;20044;-75
2021/12/13 01:50:31;;;;;;;1.20;1.10;;;10.40;99.90;;;;;;5042736;28;20049;-75
2021/12/13 01:53:00;;;;;;;27.77;10.63;;;10.50;99.90;;;;;;5063925;28;20299;-75
2021/12/13 01:55:37;;;;;;;1.25;1.08;;;10.50;99.90;;;;;;5050514;28;20041;-75
2021/12/13 01:58:35;;;;;;;8.73;4.05;;;10.50;99.90;;;;;;5039915;28;20049;-75
2021/12/13 02:01:17;;;;;;;3.03;2.15;;;10.50;99.90;;;;;;5038201;28;20047;-75
2021/12/13 02:03:48;;;;;;;5.82;2.67;;;10.50;99.90;;;;;;5036871;28;20512;-75
2021/12/13 02:06:23;;;;;;;6.53;3.78;;;10.40;99.90;;;;;;5032942;28;20041;-75
2021/12/13 02:08:54;;;;;;;24.58;11.05;;;10.50;99.90;;;;;;5040221;28;20033;-75
2021/12/13 02:11:22;;;;;;;16.23;6.55;;;10.50;99.90;;;;;;5042193;28;20045;-75
2021/12/13 02:14:06;;;;;;;2.42;2.22;;;10.50;99.90;;;;;;5040682;28;20106;-75
2021/12/13 02:20:00;;;;;;;2.25;2.00;;;10.50;99.90;;;;;;5036495;28;20100;-75
2021/12/13 02:22:51;;;;;;;4.50;1.75;;;10.50;99.90;;;;;;5038169;28;20045;-75
2021/12/13 02:25:26;;;;;;;1.00;1.00;;;10.40;99.90;;;;;;5034664;28;20048;-75
2021/12/13 02:28:13;;;;;;;10.38;3.55;;;10.40;99.90;;;;;;5027234;28;20068;-75
2021/12/13 02:31:02;;;;;;;12.75;7.20;;;10.50;99.90;;;;;;5023665;28;20486;-75
2021/12/13 02:33:31;;;;;;;1.33;1.23;;;10.50;99.90;;;;;;5030877;28;20124;-75
2021/12/13 02:36:02;;;;;;;3.28;2.10;;;10.40;99.90;;;;;;5032854;28;20045;-75
2021/12/13 02:38:29;;;;;;;4.70;2.85;;;10.40;99.90;;;;;;5030370;28;20126;-75
2021/12/13 02:40:55;;;;;;;4.22;3.33;;;10.40;99.90;;;;;;5025016;28;20052;-75
2021/12/13 02:43:27;;;;;;;1.50;1.27;;;10.40;99.90;;;;;;5039870;28;20497;-75
2021/12/13 02:45:55;;;;;;;9.13;5.40;;;10.40;99.90;;;;;;5032607;28;20507;-74
2021/12/13 02:48:45;;;;;;;2.65;2.38;;;10.40;99.90;;;;;;5041656;28;20091;-75
2021/12/13 02:51:29;;;;;;;0.73;0.73;;;10.40;99.90;;;;;;5018761;28;20363;-75
2021/12/13 02:54:03;;;;;;;5.88;3.53;;;10.30;99.90;;;;;;5055424;28;20037;-75
2021/12/13 02:56:34;;;;;;;9.70;3.08;;;10.30;99.90;;;;;;5039672;28;20065;-75
2021/12/13 02:59:02;;;;;;;13.48;5.22;;;10.30;99.90;;;;;;5043058;28;20033;-75
2021/12/13 03:01:52;;;;;;;1.90;1.75;;;10.30;99.90;;;;;;5043855;28;20445;-75
2021/12/13 03:04:21;;;;;;;2.83;2.22;;;10.30;99.90;;;;;;5036680;28;20037;-75
2021/12/13 03:06:56;;;;;;;0.77;0.77;;;10.30;99.90;;;;;;5025691;28;20407;-74
2021/12/13 03:09:26;;;;;;;25.77;7.03;;;10.30;99.90;;;;;;5069608;28;20128;-74
2021/12/13 03:11:54;;;;;;;5.03;3.05;;;10.30;99.90;;;;;;5018128;28;20038;-75
2021/12/13 03:14:25;;;;;;;2.85;2.20;;;10.30;99.90;;;;;;5038504;28;20029;-74
2021/12/13 03:17:06;;;;;;;6.75;4.25;;;10.30;99.90;;;;;;5073780;28;20086;-75
2021/12/13 03:20:06;;;;;;;14.93;6.35;;;10.30;99.90;;;;;;5038924;28;20041;-75
2021/12/13 03:22:49;;;;;;;10.25;3.05;;;10.30;99.90;;;;;;5014789;28;20051;-75
2021/12/13 03:25:42;;;;;;;32.45;11.88;;;10.30;99.90;;;;;;5032763;28;20041;-75
2021/12/13 03:28:11;;;;;;;6.20;4.32;;;10.30;99.90;;;;;;5029820;28;20048;-74
2021/12/13 03:30:53;;;;;;;3.20;2.53;;;10.20;99.90;;;;;;5031123;28;20029;-75
2021/12/13 03:33:29;;;;;;;14.45;5.97;;;10.20;99.90;;;;;;5025913;28;20087;-75
2021/12/13 03:35:57;;;;;;;17.42;6.32;;;10.10;99.90;;;;;;5024474;28;20566;-75
2021/12/13 03:38:40;;;;;;;3.33;1.70;;;10.10;99.90;;;;;;5033118;28;20409;-74
2021/12/13 03:41:10;;;;;;;0.20;0.20;;;10.10;99.90;;;;;;5032668;28;20045;-74
2021/12/13 03:43:59;;;;;;;31.65;7.47;;;10.10;99.90;;;;;;5069409;28;20048;-75
2021/12/13 03:46:28;;;;;;;0.82;0.60;;;10.10;99.90;;;;;;5024115;28;20064;-74
2021/12/13 03:48:57;;;;;;;2.85;1.95;;;10.10;99.90;;;;;;5038355;28;20253;-75
2021/12/13 03:51:35;;;;;;;2.40;1.13;;;10.10;99.90;;;;;;5021110;28;20033;-74
2021/12/13 03:54:04;;;;;;;3.20;1.48;;;10.10;99.90;;;;;;5036259;28;20104;-75
2021/12/13 03:56:34;;;;;;;1.10;0.73;;;10.00;99.90;;;;;;5023648;28;20036;-75
2021/12/13 03:59:14;;;;;;;7.68;0.85;;;10.00;99.90;;;;;;5055641;28;20370;-75
2021/12/13 04:02:03;;;;;;;1.20;1.15;;;10.00;99.90;;;;;;5029766;28;20051;-75
2021/12/13 04:04:35;;;;;;;3.85;1.58;;;10.00;99.90;;;;;;5028269;28;20083;-75
2021/12/13 04:07:23;;;;;;;1.70;1.60;;;10.00;99.90;;;;;;5045580;28;20033;-75
2021/12/13 04:09:55;;;;;;;2.10;1.33;;;10.00;99.90;;;;;;5045333;28;20109;-75
2021/12/13 04:12:27;;;;;;;1.25;0.88;;;10.00;99.90;;;;;;5021077;28;20041;-75
2021/12/13 04:14:59;;;;;;;9.00;1.83;;;9.90;99.90;;;;;;5037434;28;20098;-75
2021/12/13 04:17:37;;;;;;;1.60;1.50;;;10.00;99.90;;;;;;5042161;28;20172;-75
2021/12/13 04:20:28;;;;;;;2.85;1.17;;;9.90;99.90;;;;;;5017765;28;20045;-75
2021/12/13 04:22:59;;;;;;;0.32;0.32;;;9.90;99.90;;;;;;5028323;28;20075;-75
2021/12/13 04:25:33;;;;;;;1.00;0.82;;;9.90;99.90;;;;;;5027804;28;20162;-75
2021/12/13 04:28:13;;;;;;;4.47;2.00;;;9.90;99.90;;;;;;5036990;28;20397;-75
2021/12/13 04:30:41;;;;;;;1.13;0.85;;;9.90;99.90;;;;;;5041278;28;20041;-75
2021/12/13 04:33:12;;;;;;;2.67;1.98;;;9.90;99.90;;;;;;5041392;28;20040;-75
2021/12/13 04:35:40;;;;;;;0.38;0.38;;;9.90;99.90;;;;;;5038489;28;20037;-75
2021/12/13 04:38:07;;;;;;;1.98;0.93;;;9.90;99.90;;;;;;5019472;28;20579;-75
2021/12/13 04:40:40;;;;;;;0.50;0.50;;;9.90;99.90;;;;;;5023848;28;20045;-74
2021/12/13 04:43:11;;;;;;;1.83;1.55;;;9.80;99.90;;;;;;5032273;28;20084;-75
2021/12/13 04:45:42;;;;;;;5.07;1.33;;;9.80;99.90;;;;;;5016154;28;20044;-75
2021/12/13 04:48:25;;;;;;;0.47;0.47;;;9.80;99.90;;;;;;5054892;28;20389;-75
2021/12/13 04:51:14;;;;;;;0.38;0.38;;;9.80;99.90;;;;;;5042529;28;20033;-75
2021/12/13 04:53:44;;;;;;;1.73;1.40;;;9.80;99.90;;;;;;5075138;28;20040;-74
2021/12/13 04:56:14;;;;;;;0.10;0.10;;;9.80;99.90;;;;;;5021567;28;20140;-74
2021/12/13 04:58:43;;;;;;;0.20;0.20;;;9.80;99.90;;;;;;5035290;28;20124;-75
2021/12/13 05:01:12;;;;;;;0.45;0.45;;;9.80;99.90;;;;;;5025432;28;20106;-74
2021/12/13 05:03:43;;;;;;;0.80;0.80;;;9.80;99.90;;;;;;5022820;28;20041;-75
2021/12/13 05:06:14;;;;;;;0.20;0.20;;;9.80;99.90;;;;;;5038784;28;20049;-75
2021/12/13 05:08:43;;;;;;;0.30;0.30;;;9.80;99.90;;;;;;5035403;28;20048;-74
2021/12/13 05:11:10;;;;;;;2.05;0.75;;;9.80;99.90;;;;;;5055361;28;20076;-75
2021/12/13 05:13:48;;;;;;;1.92;1.83;;;9.80;99.90;;;;;;5054998;28;20041;-75
2021/12/13 05:16:17;;;;;;;2.28;1.42;;;9.80;99.90;;;;;;5038341;28;20048;-75
2021/12/13 05:18:51;;;;;;;1.88;1.52;;;9.80;99.90;;;;;;5040516;28;20071;-75
2021/12/13 05:21:25;;;;;;;1.77;1.65;;;9.80;99.90;;;;;;5035076;28;20037;-75
2021/12/13 05:23:59;;;;;;;1.65;1.55;;;9.80;99.90;;;;;;5018805;28;20465;-75
2021/12/13 05:26:37;;;;;;;3.40;2.08;;;9.80;99.90;;;;;;5024692;28;20123;-75
2021/12/13 05:29:24;;;;;;;4.53;2.22;;;9.80;99.90;;;;;;5032823;28;20562;-75
2021/12/13 05:31:59;;;;;;;5.70;1.75;;;9.80;99.90;;;;;;5033162;28;20037;-74
2021/12/13 05:35:01;;;;;;;1.75;1.40;;;9.80;99.90;;;;;;5042630;28;20040;-75
2021/12/13 05:37:42;;;;;;;2.90;0.93;;;9.80;99.90;;;;;;4991869;28;20047;-74
2021/12/13 05:40:14;;;;;;;5.18;2.88;;;9.80;99.90;;;;;;5070200;28;20040;-75
2021/12/13 05:42:46;;;;;;;2.33;1.98;;;9.70;99.90;;;;;;5057740;28;20394;-75
2021/12/13 05:45:28;;;;;;;3.13;2.00;;;9.70;99.90;;;;;;5034667;28;20338;-75
2021/12/13 05:48:04;;;;;;;2.38;1.40;;;9.70;99.90;;;;;;5037786;28;20041;-75
2021/12/13 05:50:38;;;;;;;1.50;1.40;;;9.70;99.90;;;;;;5042245;28;20046;-75
2021/12/13 05:53:30;;;;;;;4.90;2.05;;;9.70;99.90;;;;;;5015713;28;20049;-75
2021/12/13 05:56:01;;;;;;;1.90;1.45;;;9.70;99.90;;;;;;5034928;28;20052;-75
2021/12/13 05:58:29;;;;;;;2.45;2.05;;;9.70;99.90;;;;;;5056621;28;20037;-75
2021/12/13 06:00:58;;;;;;;1.75;1.25;;;9.70;99.90;;;;;;5042189;28;20114;-75
2021/12/13 06:03:35;;;;;;;2.35;1.33;;;9.70;99.90;;;;;;5041140;28;20539;-75
2021/12/13 06:06:10;;;;;;;1.50;1.40;;;9.60;99.90;;;;;;5062707;28;20041;-75
2021/12/13 06:08:45;;;;;;;3.75;2.17;;;9.60;99.90;;;;;;5028491;28;20554;-75
2021/12/13 06:11:20;;;;;;;5.82;3.08;;;9.60;99.90;;;;;;5026530;28;20041;-75
2021/12/13 06:13:46;;;;;;;1.65;1.50;;;9.60;99.90;;;;;;5036578;28;20048;-75
2021/12/13 06:16:24;;;;;;;3.72;2.05;;;9.60;99.90;;;;;;5036625;28;20045;-75
2021/12/13 06:19:20;;;;;;;6.65;3.10;;;9.60;99.90;;;;;;5035197;28;20528;-75
2021/12/13 06:22:03;;;;;;;2.17;1.95;;;9.60;99.90;;;;;;5023095;28;20041;-75
2021/12/13 06:24:41;;;;;;;7.60;3.22;;;9.60;99.90;;;;;;5026633;28;20063;-75
2021/12/13 06:27:20;;;;;;;2.42;1.98;;;9.60;99.90;;;;;;5036722;28;20048;-75
2021/12/13 06:29:46;;;;;;;23.10;8.38;;;9.60;99.90;;;;;;5036960;28;20041;-75
2021/12/13 06:32:41;;;;;;;3.55;1.80;;;9.60;99.90;;;;;;5067266;28;20103;-75
2021/12/13 06:35:43;;;;;;;4.57;2.35;;;9.60;99.90;;;;;;5007759;28;20050;-75
2021/12/13 06:38:28;;;;;;;35.13;3.78;;;9.60;99.90;;;;;;5021402;28;20166;-75
2021/12/13 06:40:57;;;;;;;1.02;1.00;;;9.60;99.90;;;;;;5040282;28;20048;-75
2021/12/13 06:43:31;;;;;;;2.75;1.42;;;9.60;99.90;;;;;;5023624;28;20167;-74
2021/12/13 06:46:01;;;;;;;2.25;2.00;;;9.60;99.90;;;;;;5026559;28;20067;-75
2021/12/13 06:48:43;;;;;;;1.88;1.40;;;9.60;99.90;;;;;;5053090;28;20091;-75
2021/12/13 06:51:14;;;;;;;0.55;0.55;;;9.60;99.90;;;;;;5041250;28;20041;-75
2021/12/13 06:53:58;;;;;;;3.75;1.52;;;9.60;99.90;;;;;;5040941;28;20057;-75
2021/12/13 06:56:28;;;;;;;1.45;1.35;;;9.50;99.90;;;;;;5041972;28;20076;-75
2021/12/13 06:58:59;;;;;;;5.13;2.63;;;9.50;99.90;;;;;;5019851;28;20452;-75
2021/12/13 07:01:31;;;;;;;7.00;2.50;;;9.50;99.90;;;;;;5027226;28;20046;-75
2021/12/13 07:04:17;;;;;;;2.60;1.55;;;9.50;99.90;;;;;;5042756;28;20744;-75
2021/12/13 07:06:42;;;;;;;1.75;0.93;;;9.50;99.90;;;;;;5028674;28;20497;-75
2021/12/13 07:09:17;;;;;;;1.95;1.45;;;9.50;99.90;;;;;;5036896;28;20096;-74
2021/12/13 07:11:56;;;;;;;4.90;3.35;;;9.50;99.90;;;;;;5030102;28;20045;-75
2021/12/13 07:14:37;;;;;;;6.10;2.70;;;9.50;99.90;;;;;;5040172;28;20448;-75
2021/12/13 07:17:17;;;;;;;5.72;2.38;;;9.50;99.90;;;;;;5041366;28;20045;-75
2021/12/13 07:19:47;;;;;;;6.97;3.03;;;9.50;99.90;;;;;;5038631;28;20493;-74
2021/12/13 07:22:28;;;;;;;1.58;1.38;;;9.50;99.90;;;;;;5039721;28;20124;-75
2021/12/13 07:25:10;;;;;;;8.15;3.90;;;9.50;99.90;;;;;;5025972;28;20057;-75
2021/12/13 07:27:44;;;;;;;9.35;4.35;;;9.50;99.90;;;;;;5072207;28;20040;-75
2021/12/13 07:30:23;;;;;;;3.45;2.67;;;9.50;99.90;;;;;;5024262;28;20045;-75
2021/12/13 07:32:54;;;;;;;3.45;2.58;;;9.50;99.90;;;;;;5040385;28;20440;-75
2021/12/13 07:35:28;;;;;;;1.15;1.05;;;9.50;99.90;;;;;;5038767;28;20053;-75
2021/12/13 07:37:54;;;;;;;1.48;1.38;;;9.50;99.90;;;;;;5022205;28;20040;-75
2021/12/13 07:40:25;;;;;;;2.90;2.55;;;9.40;99.90;;;;;;5039739;28;20611;-75
2021/12/13 07:43:04;;;;;;;6.50;3.05;;;9.50;99.90;;;;;;5045814;28;20040;-75
2021/12/13 07:45:33;;;;;;;8.57;3.70;;;9.40;99.90;;;;;;5027812;28;20045;-75
2021/12/13 07:48:06;;;;;;;6.40;2.83;;;9.50;99.90;;;;;;5037531;28;20493;-75
2021/12/13 07:50:33;;;;;;;7.70;4.70;;;9.50;99.90;;;;;;5030781;28;20072;-75
2021/12/13 07:53:07;;;;;;;4.88;2.45;;;9.50;99.90;;;;;;5023651;28;20045;-75
2021/12/13 07:55:33;;;;;;;2.58;2.08;;;9.50;99.90;;;;;;5038364;28;20041;-75
2021/12/13 07:58:03;;;;;;;6.18;3.72;;;9.50;99.90;;;;;;5021214;28;20103;-75
2021/12/13 08:00:38;;;;;;;4.55;2.60;;;9.50;99.90;;;;;;5039194;28;20047;-75
2021/12/13 08:03:08;;;;;;;7.97;4.80;;;9.50;99.90;;;;;;5020748;28;20199;-75
2021/12/13 08:05:40;;;;;;;1.27;1.17;;;9.50;99.90;;;;;;5050469;28;20059;-75
2021/12/13 08:08:15;;;;;;;4.07;3.42;;;9.50;99.90;;;;;;5049970;28;20125;-76
2021/12/13 08:10:43;;;;;;;5.93;4.05;;;9.50;99.90;;;;;;5057133;28;20119;-76
2021/12/13 08:13:17;;;;;;;14.65;6.05;;;9.50;99.90;;;;;;5055458;28;20525;-76
2021/12/13 08:16:00;;;;;;;3.97;1.90;;;9.50;99.90;;;;;;5018119;28;1169173;-75
2021/12/13 08:18:31;;;;;;;2.30;1.98;;;9.60;99.90;;;;;;5049605;28;20053;-76
2021/12/13 08:21:07;;;;;;;7.80;3.67;;;9.60;99.90;;;;;;5046189;28;20041;-76
2021/12/13 08:23:55;;;;;;;5.70;4.05;;;9.60;99.90;;;;;;5027296;28;20040;-76
2021/12/13 08:26:42;;;;;;;5.22;3.08;;;9.60;99.90;;;;;;5022219;28;20055;-76
2021/12/13 08:29:11;;;;;;;10.55;5.38;;;9.60;99.90;;;;;;5022527;28;20041;-76
2021/12/13 08:31:41;;;;;;;8.82;5.75;;;9.60;99.90;;;;;;5044589;28;20044;-77
2021/12/13 08:34:25;;;;;;;5.53;2.95;;;9.60;99.90;;;;;;5043685;28;20033;-76
2021/12/13 08:36:52;;;;;;;6.30;4.47;;;9.70;99.90;;;;;;5036544;28;20037;-76
2021/12/13 08:39:26;;;;;;;8.63;3.45;;;9.60;99.90;;;;;;5038591;28;20397;-76
2021/12/13 08:41:59;;;;;;;5.68;2.97;;;9.60;99.90;;;;;;5046130;28;20036;-76
2021/12/13 08:44:31;;;;;;;10.90;6.07;;;9.70;99.90;;;;;;5079598;28;20072;-76
2021/12/13 08:47:10;;;;;;;8.18;4.25;;;9.70;99.90;;;;;;5036486;28;20037;-76
2021/12/13 08:50:03;;;;;;;12.40;6.30;;;9.70;99.90;;;;;;5037184;28;20037;-76
2021/12/13 08:52:36;;;;;;;7.60;4.63;;;9.80;99.90;;;;;;5031719;28;20037;-77
2021/12/13 08:55:01;;;;;;;;;;;9.80;99.90;;;;;;5018748;28;20045;-76
2021/12/13 08:57:36;;;;;;;7.72;4.78;;;9.80;99.90;;;;;;5072826;28;20399;-76
2021/12/13 09:00:13;;;;;;;2.45;1.42;;;9.80;99.90;;;;;;5033718;28;20056;-76
2021/12/13 09:03:05;;;;;;;12.32;6.53;;;9.90;99.90;;;;;;5040243;28;20064;-76
2021/12/13 09:05:56;;;;;;;6.57;3.20;;;9.90;99.90;;;;;;5035988;28;20044;-76
2021/12/13 09:08:28;;;;;;;5.70;3.75;;;9.90;99.90;;;;;;5026680;28;20171;-76
2021/12/13 09:11:05;;;;;;;4.70;3.40;;;9.90;99.90;;;;;;5024928;28;20123;-76
2021/12/13 09:13:40;;;;;;;19.35;4.22;;;9.90;99.90;;;;;;5020964;28;20051;-76
2021/12/13 09:16:07;;;;;;;3.42;2.67;;;9.90;99.90;;;;;;5025959;28;20099;-76
2021/12/13 09:18:33;;;;;;;7.72;5.28;;;9.90;99.90;;;;;;5018917;28;20038;-76
2021/12/13 09:21:00;;;;;;;6.05;3.72;;;9.90;99.90;;;;;;5025317;28;20034;-76
2021/12/13 09:23:30;;;;;;;5.13;2.60;;;10.00;99.90;;;;;;5037605;28;20045;-76
2021/12/13 09:26:11;;;;;;;11.70;4.68;;;10.00;99.90;;;;;;5056204;28;20059;-76
2021/12/13 09:28:46;;;;;;;4.82;2.85;;;10.00;99.90;;;;;;5023056;28;20680;-76
2021/12/13 09:31:18;;;;;;;7.10;3.78;;;10.00;99.90;;;;;;5033583;28;22635;-76
2021/12/13 09:33:50;;;;;;;3.78;3.45;;;10.00;99.90;;;;;;5029354;28;20044;-76
2021/12/13 09:36:27;;;;;;;3.72;3.40;;;10.00;99.90;;;;;;5028992;28;20312;-76
2021/12/13 09:38:58;;;;;;;5.63;4.93;;;10.00;99.90;;;;;;5035110;28;20087;-76
2021/12/13 09:41:30;;;;;;;8.13;3.10;;;10.00;99.90;;;;;;5019440;28;20041;-76
2021/12/13 09:44:05;;;;;;;10.43;5.60;;;10.00;99.90;;;;;;5034342;28;20037;-76
2021/12/13 09:46:34;;;;;;;7.82;5.18;;;10.00;99.90;;;;;;5052799;28;20037;-76
2021/12/13 09:49:10;;;;;;;8.00;3.92;;;10.00;99.90;;;;;;5071817;28;20394;-77
2021/12/13 09:51:49;;;;;;;2.17;1.60;;;10.00;99.90;;;;;;5015877;28;20041;-76
2021/12/13 09:54:19;;;;;;;6.63;4.78;;;10.00;99.90;;;;;;5068884;28;20508;-76
2021/12/13 09:56:49;;;;;;;9.52;5.45;;;10.00;99.90;;;;;;5045547;28;20048;-77
2021/12/13 09:59:40;;;;;;;3.50;2.50;;;10.00;99.90;;;;;;5036508;28;20459;-76
2021/12/13 10:02:14;;;;;;;7.93;4.68;;;10.10;99.90;;;;;;5033849;28;20045;-77
2021/12/13 10:04:43;;;;;;;8.80;5.20;;;10.00;99.90;;;;;;5032376;28;20073;-76
2021/12/13 10:07:15;;;;;;;1.85;1.35;;;10.00;99.90;;;;;;5032350;28;20094;-76
2021/12/13 10:09:57;;;;;;;6.70;4.05;;;10.10;99.90;;;;;;5055775;28;20038;-76
2021/12/13 10:12:39;;;;;;;6.60;4.13;;;10.00;99.90;;;;;;5065600;28;20506;-76
2021/12/13 10:15:08;;;;;;;8.27;4.75;;;10.00;99.90;;;;;;5059263;28;20049;-76
2021/12/13 10:17:38;;;;;;;8.20;4.22;;;10.00;99.90;;;;;;5037231;28;20063;-77
2021/12/13 10:20:13;;;;;;;5.70;3.88;;;10.00;99.90;;;;;;5036070;28;20120;-76
2021/12/13 10:22:40;;;;;;;4.70;2.63;;;10.00;99.90;;;;;;5055572;28;20183;-76
2021/12/13 10:25:20;;;;;;;2.33;2.13;;;10.00;99.90;;;;;;5050163;28;20128;-76
2021/12/13 10:27:46;;;;;;;5.80;4.22;;;10.00;99.90;;;;;;5046860;28;20526;-76
2021/12/13 10:30:22;;;;;;;8.68;4.38;;;10.00;99.90;;;;;;5063512;28;20046;-76
2021/12/13 10:32:49;;;;;;;3.92;3.05;;;10.10;99.90;;;;;;5030644;28;20106;-76
2021/12/13 10:35:24;;;;;;;1.73;1.58;;;10.10;99.90;;;;;;5053073;28;20040;-76
2021/12/13 10:37:54;;;;;;;15.30;7.10;;;10.20;99.90;;;;;;5043533;28;20308;-76
2021/12/13 10:40:26;;;;;;;8.07;5.80;;;10.20;99.90;;;;;;5020373;28;20051;-76
2021/12/13 10:43:03;;;;;;;10.25;5.25;;;10.20;99.90;;;;;;5054954;28;20099;-77
2021/12/13 10:45:39;;;;;;;2.13;1.95;;;10.20;99.90;;;;;;5032787;28;20116;-76
2021/12/13 10:48:08;;;;;;;9.27;5.50;;;10.20;99.90;;;;;;5030822;28;20033;-76
2021/12/13 10:50:36;;;;;;;7.35;3.30;;;10.30;99.90;;;;;;5050351;28;20041;-76
2021/12/13 10:53:06;;;;;;;12.32;4.68;;;10.30;99.90;;;;;;5041824;28;20547;-76
2021/12/13 10:55:37;;;;;;;3.90;2.65;;;10.30;99.90;;;;;;5028632;28;20048;-76
2021/12/13 10:58:04;;;;;;;9.18;4.03;;;10.30;99.90;;;;;;5049502;28;20103;-76
2021/12/13 11:00:37;;;;;;;10.68;3.85;;;10.20;99.90;;;;;;5079836;28;20049;-76
2021/12/13 11:03:11;;;;;;;4.80;3.15;;;10.20;99.90;;;;;;5027833;28;20045;-77
2021/12/13 11:05:38;;;;;;;4.80;2.05;;;10.20;99.90;;;;;;5057127;28;20136;-76
2021/12/13 11:08:07;;;;;;;5.80;4.47;;;10.20;99.90;;;;;;5043225;28;20036;-76
2021/12/13 11:10:38;;;;;;;6.30;3.03;;;10.20;99.90;;;;;;5049992;28;20041;-76
2021/12/13 11:13:04;;;;;;;11.30;6.28;;;10.20;99.90;;;;;;5060464;28;20045;-76
2021/12/13 11:15:36;;;;;;;9.05;5.03;;;10.20;99.90;;;;;;5054510;28;20087;-76
2021/12/13 11:18:07;;;;;;;9.50;2.13;;;10.30;99.90;;;;;;5028232;28;20048;-76
2021/12/13 11:20:38;;;;;;;9.38;5.57;;;10.30;99.90;;;;;;5055373;28;20045;-76
2021/12/13 11:23:07;;;;;;;1.90;1.80;;;10.30;99.90;;;;;;5042350;28;20045;-76
2021/12/13 11:25:46;;;;;;;5.43;3.65;;;10.30;99.90;;;;;;5034478;28;20486;-76
2021/12/13 11:28:13;;;;;;;3.58;2.47;;;10.40;99.90;;;;;;5030335;28;20068;-76
2021/12/13 11:30:39;;;;;;;4.93;3.13;;;10.50;99.90;;;;;;5030341;28;20048;-76
2021/12/13 11:33:09;;;;;;;6.00;4.43;;;10.40;99.90;;;;;;5025710;28;20040;-76
2021/12/13 11:36:07;;;;;;;12.35;7.53;;;10.50;99.90;;;;;;5035079;28;20148;-76
2021/12/13 11:39:09;;;;;;;5.82;3.70;;;10.50;99.90;;;;;;5015450;28;20076;-77
2021/12/13 11:41:46;;;;;;;4.47;3.47;;;10.60;99.90;;;;;;5022581;28;20353;-76
2021/12/13 11:44:27;;;;;;;6.03;3.78;;;10.50;99.90;;;;;;5040808;28;20157;-76
2021/12/13 11:47:18;;;;;;;6.47;3.05;;;10.60;99.90;;;;;;5058537;28;20083;-77
2021/12/13 11:50:22;;;;;;;3.90;2.40;;;10.60;99.90;;;;;;5065752;28;20129;-77
2021/12/13 11:53:25;;;;;;;10.55;6.47;;;10.60;99.90;;;;;;5021260;28;20033;-77
2021/12/13 11:55:51;;;;;;;9.65;2.47;;;10.70;99.90;;;;;;5020688;28;20045;-76
2021/12/13 11:58:19;;;;;;;2.00;1.20;;;10.80;99.90;;;;;;5031334;28;20048;-76
2021/12/13 12:01:17;;;;;;;9.43;4.18;;;10.80;99.90;;;;;;5065973;28;20632;-77
2021/12/13 12:04:08;;;;;;;3.50;2.70;;;10.80;99.90;;;;;;5048132;28;20044;-76
2021/12/13 12:06:55;;;;;;;9.43;4.47;;;10.90;99.90;;;;;;5036447;28;20080;-77
2021/12/13 12:09:48;;;;;;;13.85;8.63;;;10.90;99.90;;;;;;5029398;28;20044;-77
2021/12/13 12:12:59;;;;;;;5.38;3.70;;;10.90;99.90;;;;;;5029348;28;20390;-76
2021/12/13 12:15:26;;;;;;;1.58;1.48;;;10.80;99.90;;;;;;5051470;28;20062;-77
2021/12/13 12:17:55;;;;;;;11.52;6.50;;;10.70;99.90;;;;;;5048004;28;20080;-77
2021/12/13 12:20:29;;;;;;;15.50;10.27;;;10.70;99.90;;;;;;5060038;28;20048;-76
2021/12/13 12:22:58;;;;;;;7.78;4.93;;;10.60;99.90;;;;;;5071171;28;20408;-76
2021/12/13 12:25:27;;;;;;;7.88;4.72;;;10.60;99.90;;;;;;5048219;28;20044;-76
2021/12/13 12:27:58;;;;;;;2.08;1.48;;;10.60;99.90;;;;;;5041317;28;20397;-77
2021/12/13 12:30:33;;;;;;;10.45;6.10;;;10.50;99.90;;;;;;5033058;28;20401;-76
2021/12/13 12:33:06;;;;;;;8.38;5.40;;;10.50;99.90;;;;;;5046209;28;20052;-77
2021/12/13 12:35:36;;;;;;;9.40;7.00;;;10.50;99.90;;;;;;5042727;28;20454;-76
2021/12/13 12:38:20;;;;;;;6.20;4.20;;;10.50;99.90;;;;;;5034341;28;20041;-76
2021/12/13 12:40:49;;;;;;;6.10;4.20;;;10.50;99.90;;;;;;5043920;28;20037;-77
2021/12/13 12:43:21;;;;;;;0.88;0.88;;;10.50;99.90;;;;;;5032846;28;20043;-77
2021/12/13 12:45:52;;;;;;;1.45;1.13;;;10.40;99.90;;;;;;5043336;28;20463;-77
2021/12/13 12:48:27;;;;;;;2.45;1.67;;;10.40;99.90;;;;;;5048629;28;20052;-76
2021/12/13 12:50:58;;;;;;;39.97;5.18;;;10.40;99.90;;;;;;5031684;28;20041;-77
2021/12/13 12:53:32;;;;;;;2.50;1.45;;;10.40;99.90;;;;;;5036240;28;20438;-76
2021/12/13 12:56:12;;;;;;;14.23;3.20;;;10.40;99.90;;;;;;5046936;28;20051;-76
2021/12/13 12:59:09;;;;;;;8.68;2.70;;;10.50;99.90;;;;;;5046122;28;20045;-76
2021/12/13 13:02:04;;;;;;;4.82;3.42;;;10.50;99.90;;;;;;5055204;28;20041;-77
2021/12/13 13:04:36;;;;;;;10.77;6.38;;;10.50;99.90;;;;;;5053892;28;20044;-76
2021/12/13 13:07:13;;;;;;;8.25;3.47;;;10.60;99.90;;;;;;5050720;28;20045;-77
2021/12/13 13:09:53;;;;;;;6.55;3.88;;;10.50;99.90;;;;;;5021576;28;20125;-77
2021/12/13 13:12:28;;;;;;;6.10;3.80;;;10.50;99.90;;;;;;5032178;28;20379;-77
2021/12/13 13:15:14;;;;;;;3.45;2.55;;;10.50;99.90;;;;;;5017683;28;20385;-76
2021/12/13 13:17:47;;;;;;;5.07;3.20;;;10.60;99.90;;;;;;5030744;28;20123;-77
2021/12/13 13:20:19;;;;;;;7.75;5.18;;;10.60;99.90;;;;;;5037908;28;20103;-77
2021/12/13 13:22:47;;;;;;;4.60;3.50;;;10.60;99.90;;;;;;5039340;28;20037;-77
2021/12/13 13:25:29;;;;;;;4.97;3.08;;;10.60;99.90;;;;;;5031430;28;20051;-77
2021/12/13 13:27:56;;;;;;;0.85;0.65;;;10.60;99.90;;;;;;5017839;28;20124;-76
2021/12/13 13:30:43;;;;;;;4.30;2.95;;;10.60;99.90;;;;;;5013153;28;20033;-76
2021/12/13 13:33:10;;;;;;;4.85;2.15;;;10.60;99.90;;;;;;5039451;28;20392;-77
2021/12/13 13:35:36;;;;;;;4.38;2.05;;;10.60;99.90;;;;;;5044525;28;20054;-77
2021/12/13 13:38:14;;;;;;;1.40;1.30;;;10.60;99.90;;;;;;5039071;28;20045;-76
2021/12/13 13:40:41;;;;;;;6.75;4.57;;;10.50;99.90;;;;;;5030556;28;20124;-77
2021/12/13 13:43:11;;;;;;;1.10;0.98;;;10.50;99.90;;;;;;5035488;28;20045;-76